createdAt,value
2019-01-09T12:17:29.976Z,74.90
2019-01-09T12:20:00.336Z,73.20
2019-01-09T12:22:30.632Z,71.70
2019-01-09T12:25:01.061Z,70.60
2019-01-09T12:27:31.391Z,72.00
2019-01-09T12:30:01.739Z,71.30
2019-01-09T12:32:32.132Z,71.80
2019-01-09T12:35:02.638Z,71.30
2019-01-09T12:37:32.967Z,70.90
2019-01-09T12:40:03.479Z,69.40
2019-01-09T12:42:34.076Z,70.40
2019-01-09T12:45:05.015Z,70.40
2019-01-09T12:47:35.386Z,70.10
2019-01-09T12:50:07.435Z,70.50
2019-01-09T12:52:37.739Z,69.70
2019-01-09T12:55:08.763Z,70.30
2019-01-09T12:57:39.192Z,70.20
2019-01-09T13:00:14.582Z,70.10
2019-01-09T13:02:44.882Z,71.30
2019-01-09T13:05:15.456Z,70.50
2019-01-09T13:07:45.808Z,70.80
2019-01-09T13:10:16.240Z,70.90
2019-01-09T13:12:46.584Z,70.40
2019-01-09T13:15:16.888Z,69.30
2019-01-09T13:17:47.412Z,69.20
2019-01-09T13:20:17.962Z,70.10
2019-01-09T13:22:48.227Z,70.80
2019-01-09T13:25:18.560Z,71.60
2019-01-09T13:27:48.962Z,70.00
2019-01-09T13:30:21.267Z,70.40
2019-01-09T13:32:52.040Z,69.10
2019-01-09T13:35:22.369Z,68.80
2019-01-09T13:37:52.741Z,69.80
2019-01-09T13:40:23.191Z,70.00
2019-01-09T13:42:53.639Z,69.40
2019-01-09T13:45:24.103Z,69.70
2019-01-09T13:47:54.554Z,69.60
2019-01-09T13:50:24.960Z,70.10
2019-01-09T13:52:55.403Z,70.60
2019-01-09T13:55:25.835Z,70.50
2019-01-09T13:57:56.156Z,70.10
2019-01-09T14:00:26.592Z,70.20
2019-01-09T14:02:56.914Z,70.70
2019-01-09T14:05:27.272Z,70.80
2019-01-09T14:07:57.723Z,71.10
2019-01-09T14:10:29.347Z,70.20
2019-01-09T14:13:00.205Z,70.70
2019-01-09T14:15:30.602Z,70.70
2019-01-09T14:18:00.995Z,70.50
2019-01-09T14:20:31.351Z,69.40
2019-01-09T14:23:03.341Z,69.80
2019-01-09T14:25:33.698Z,69.70
2019-01-09T14:28:04.092Z,68.70
2019-01-09T14:30:34.774Z,68.60
2019-01-09T14:33:05.232Z,67.70
2019-01-09T14:35:35.652Z,68.40
2019-01-09T14:38:06.094Z,67.70
2019-01-09T14:40:37.299Z,68.10
2019-01-09T14:43:07.816Z,68.60
2019-01-09T14:45:38.387Z,67.90
2019-01-09T14:48:08.770Z,67.90
2019-01-09T14:50:40.629Z,68.60
2019-01-09T14:53:10.936Z,68.10
2019-01-09T14:55:42.725Z,68.20
2019-01-09T14:58:13.118Z,68.60
2019-01-09T15:00:43.421Z,69.30
2019-01-09T15:03:14.965Z,70.60
2019-01-09T15:05:45.700Z,70.60
2019-01-09T15:08:17.671Z,70.50
2019-01-09T15:10:47.965Z,71.30
2019-01-09T15:13:18.388Z,71.80
2019-01-09T15:15:48.658Z,72.20
2019-01-09T15:18:19.011Z,72.40
2019-01-09T15:20:50.998Z,72.50
2019-01-09T15:23:21.452Z,72.70
2019-01-09T15:25:51.900Z,72.30
2019-01-09T15:28:22.534Z,71.90
2019-01-09T15:30:52.998Z,71.80
2019-01-09T15:33:23.408Z,71.60
2019-01-09T15:35:53.797Z,71.90
2019-01-09T15:38:24.397Z,72.50
2019-01-09T15:40:54.790Z,72.80
2019-01-09T15:43:25.395Z,73.70
2019-01-09T15:45:56.642Z,74.10
2019-01-09T15:48:27.084Z,74.60
2019-01-09T15:50:57.480Z,74.20
2019-01-09T15:53:27.854Z,74.40
2019-01-09T15:55:58.364Z,74.90
2019-01-09T15:58:28.766Z,75.30
2019-01-09T16:00:59.301Z,74.90
2019-01-09T16:03:29.593Z,74.60
2019-01-09T16:05:59.854Z,75.00
2019-01-09T16:08:30.131Z,75.20
2019-01-09T16:11:00.490Z,74.80
2019-01-09T16:13:32.533Z,74.60
2019-01-09T16:16:02.978Z,75.10
2019-01-09T16:18:33.273Z,74.90
2019-01-09T16:21:03.663Z,74.40
2019-01-09T16:23:34.026Z,74.50
2019-01-09T16:26:04.703Z,74.20
2019-01-09T16:28:35.102Z,74.40
2019-01-09T16:31:32.269Z,74.20
2019-01-09T16:34:04.371Z,74.60
2019-01-09T16:36:35.115Z,75.10
2019-01-09T16:39:09.436Z,75.60
2019-01-09T16:41:39.724Z,76.20
2019-01-09T16:44:10.144Z,76.10
2019-01-09T16:46:40.520Z,76.70
2019-01-09T16:49:10.976Z,76.90
2019-01-09T16:51:43.335Z,76.30
2019-01-09T16:54:13.792Z,76.30
2019-01-09T16:56:44.391Z,76.00
2019-01-09T16:59:14.728Z,75.90
2019-01-09T17:01:45.175Z,76.00
2019-01-09T17:04:15.576Z,76.30
2019-01-09T17:06:46.485Z,76.50
2019-01-09T17:09:17.275Z,76.30
2019-01-09T17:11:49.196Z,76.60
2019-01-09T17:14:19.860Z,76.30
2019-01-09T17:16:50.349Z,76.60
2019-01-09T17:19:20.678Z,76.50
2019-01-09T17:21:51.101Z,76.50
2019-01-09T17:24:22.822Z,76.40
2019-01-09T17:26:53.419Z,76.40
2019-01-09T17:29:24.085Z,76.20
2019-01-09T17:31:55.749Z,76.10
2019-01-09T17:34:26.274Z,76.60
2019-01-09T17:36:56.738Z,77.00
2019-01-09T17:39:27.464Z,76.90
2019-01-09T17:41:57.804Z,77.90
2019-01-09T17:44:28.201Z,78.10
2019-01-09T17:46:59.272Z,78.30
2019-01-09T17:49:29.761Z,78.30
2019-01-09T17:52:00.048Z,79.00
2019-01-09T17:54:30.570Z,78.80
2019-01-09T17:57:01.457Z,78.80
2019-01-09T17:59:32.739Z,78.80
2019-01-09T18:02:03.238Z,79.00
2019-01-09T18:04:33.630Z,79.30
2019-01-09T18:07:04.094Z,79.30
2019-01-09T18:09:34.408Z,79.30
2019-01-09T18:12:04.936Z,79.20
2019-01-09T18:14:35.301Z,79.30
2019-01-09T18:17:06.273Z,79.60
2019-01-09T18:19:36.676Z,79.40
2019-01-09T18:22:07.427Z,79.70
2019-01-09T18:24:37.785Z,79.80
2019-01-09T18:27:08.127Z,80.20
2019-01-09T18:29:38.531Z,80.80
2019-01-09T18:32:38.185Z,81.20
2019-01-09T18:35:27.076Z,81.10
2019-01-09T18:38:16.132Z,81.20
2019-01-09T18:41:07.720Z,81.20
2019-01-09T18:44:07.114Z,80.80
2019-01-09T18:47:00.223Z,80.70
2019-01-09T18:52:36.591Z,80.60
2019-01-09T18:55:08.337Z,79.30
2019-01-09T18:57:38.761Z,79.30
2019-01-09T19:00:14.433Z,78.80
2019-01-09T19:02:45.082Z,79.10
2019-01-09T19:05:15.614Z,79.50
2019-01-09T19:07:46.156Z,79.10
2019-01-09T19:10:19.801Z,79.40
2019-01-09T19:12:50.669Z,79.40
2019-01-09T19:15:21.199Z,79.10
2019-01-09T19:17:51.875Z,78.80
2019-01-09T19:20:22.258Z,79.30
2019-01-09T19:22:53.207Z,79.30
2019-01-09T19:25:23.805Z,79.20
2019-01-09T19:27:54.407Z,79.90
2019-01-09T19:30:28.557Z,79.90
2019-01-09T19:32:59.369Z,80.50
2019-01-09T19:35:29.812Z,80.40
2019-01-09T19:38:01.882Z,80.30
2019-01-09T19:40:32.430Z,80.20
2019-01-09T19:43:03.009Z,80.30
2019-01-09T19:45:34.284Z,80.40
2019-01-09T19:48:04.996Z,80.20
2019-01-09T19:50:42.453Z,80.20
2019-01-09T19:53:07.344Z,80.20
2019-01-09T19:55:37.941Z,80.40
2019-01-09T19:58:08.365Z,80.10
2019-01-09T20:00:38.849Z,80.50
2019-01-09T20:03:09.144Z,80.50
2019-01-09T20:05:39.504Z,80.60
2019-01-09T20:08:09.811Z,80.50
2019-01-09T20:10:40.175Z,80.70
2019-01-09T20:13:10.585Z,80.50
2019-01-09T20:15:41.078Z,80.40
2019-01-09T20:18:11.460Z,80.80
2019-01-09T20:20:42.813Z,81.30
2019-01-09T20:23:13.134Z,81.10
2019-01-09T20:25:43.527Z,81.40
2019-01-09T20:28:13.855Z,81.60
2019-01-09T20:30:44.207Z,82.00
2019-01-09T20:33:14.589Z,82.30
2019-01-09T20:35:45.342Z,82.20
2019-01-09T20:38:15.763Z,82.20
2019-01-09T20:40:46.365Z,83.30
2019-01-09T20:43:16.635Z,82.40
2019-01-09T20:45:47.028Z,82.60
2019-01-09T20:48:17.505Z,82.20
2019-01-09T20:50:48.514Z,82.70
2019-01-09T20:53:18.969Z,82.60
2019-01-09T20:55:49.732Z,83.10
2019-01-09T20:58:21.251Z,83.00
2019-01-09T21:00:51.807Z,83.20
2019-01-09T21:03:22.293Z,82.90
2019-01-09T21:05:53.416Z,82.90
2019-01-09T21:08:23.879Z,83.00
2019-01-09T21:10:54.358Z,83.20
2019-01-09T21:13:24.704Z,83.20
2019-01-09T21:15:55.072Z,83.50
2019-01-09T21:18:25.560Z,83.20
2019-01-09T21:20:56.137Z,83.10
2019-01-09T21:23:26.750Z,83.40
2019-01-09T21:25:57.262Z,83.80
2019-01-09T21:28:27.726Z,84.00
2019-01-09T21:30:58.795Z,84.20
2019-01-09T21:33:29.266Z,84.40
2019-01-09T21:35:59.742Z,84.30
2019-01-09T21:38:30.143Z,84.80
2019-01-09T21:41:00.558Z,84.90
2019-01-09T21:43:34.045Z,85.20
2019-01-09T21:46:04.571Z,84.60
2019-01-09T21:48:35.059Z,84.20
2019-01-09T21:51:05.720Z,84.40
2019-01-09T21:53:36.123Z,84.20
2019-01-09T21:56:06.617Z,84.10
2019-01-09T21:58:37.082Z,83.60
2019-01-09T22:01:07.720Z,84.10
2019-01-09T22:03:38.173Z,84.40
2019-01-09T22:06:09.054Z,84.60
2019-01-09T22:08:41.007Z,84.90
2019-01-09T22:11:11.459Z,85.30
2019-01-09T22:13:42.206Z,85.20
2019-01-09T22:16:12.878Z,85.90
2019-01-09T22:18:43.516Z,85.90
2019-01-09T22:21:13.900Z,85.30
2019-01-09T22:23:44.224Z,86.00
2019-01-09T22:26:14.598Z,85.90
2019-01-09T22:28:44.908Z,86.20
2019-01-09T22:31:15.241Z,86.20
2019-01-09T22:33:45.641Z,86.30
2019-01-09T22:36:16.034Z,86.70
2019-01-09T22:38:46.458Z,86.50
2019-01-09T22:41:16.753Z,86.30
2019-01-09T22:43:47.169Z,86.90
2019-01-09T22:46:17.554Z,86.90
2019-01-09T22:48:48.903Z,86.60
2019-01-09T22:51:19.413Z,86.70
2019-01-09T22:53:49.731Z,86.80
2019-01-09T22:56:20.068Z,86.60
2019-01-09T22:58:50.381Z,86.00
2019-01-09T23:01:26.307Z,86.40
2019-01-09T23:03:57.363Z,87.00
2019-01-09T23:06:27.754Z,86.40
2019-01-09T23:08:58.091Z,86.60
2019-01-09T23:11:28.471Z,86.20
2019-01-09T23:13:58.822Z,85.80
2019-01-09T23:16:29.156Z,85.60
2019-01-09T23:19:00.110Z,85.90
2019-01-09T23:21:33.751Z,85.80
2019-01-09T23:24:05.910Z,85.60
2019-01-09T23:26:36.213Z,85.60
2019-01-09T23:29:06.845Z,85.80
2019-01-09T23:31:37.084Z,85.60
2019-01-09T23:34:07.446Z,85.90
2019-01-09T23:36:37.891Z,86.10
2019-01-09T23:39:10.810Z,86.50
2019-01-09T23:41:41.245Z,86.90
2019-01-09T23:44:11.905Z,86.80
2019-01-09T23:46:42.181Z,86.60
2019-01-09T23:49:12.428Z,86.90
2019-01-09T23:51:43.947Z,86.90
2019-01-09T23:54:14.251Z,86.60
2019-01-09T23:56:44.557Z,86.30
2019-01-09T23:59:14.913Z,86.90
